Time;durP1;ratioP1;P1;durP2;ratioP2;P2;SDS_P1;SDS_P2;PMS_P1;PMS_P2;Temp;Humidity;BMP_temperature;BMP_pressure;BME280_temperature;BME280_humidity;BME280_pressure;Samples;Min_cycle;Max_cycle;Signal;HPM_P1;HPM_P2
2023/07/15 00:01:47;;;;;;;2.92;1.55;;;28.60;56.90;;;;;;7404306;19;20019;-75
2023/07/15 00:04:19;;;;;;;7.07;2.15;;;28.60;57.40;;;;;;7381542;19;20006;-75
2023/07/15 00:06:47;;;;;;;4.50;1.75;;;28.60;57.60;;;;;;7379563;19;20242;-76
2023/07/15 00:09:22;;;;;;;10.10;1.77;;;28.50;57.80;;;;;;7380983;19;20066;-75
2023/07/15 00:11:53;;;;;;;6.05;1.40;;;28.50;58.10;;;;;;7384764;19;20013;-75
2023/07/15 00:14:28;;;;;;;4.57;1.48;;;28.50;58.20;;;;;;7367025;19;20386;-74
2023/07/15 00:17:00;;;;;;;2.95;1.50;;;28.50;58.50;;;;;;7386070;19;20010;-73
2023/07/15 00:19:39;;;;;;;6.47;1.70;;;28.50;58.80;;;;;;7412998;19;20007;-82
2023/07/15 00:25:49;;;;;;;6.40;1.50;;;28.50;59.40;;;;;;7364685;19;20041;-78
2023/07/15 00:28:18;;;;;;;4.07;1.40;;;28.30;60.30;;;;;;7406762;19;20014;-78
2023/07/15 00:43:30;;;;;;;4.10;1.38;;;28.00;62.80;;;;;;7402883;19;20022;-83
2023/07/15 00:46:44;;;;;;;3.72;1.58;;;28.00;62.90;;;;;;7385831;19;20006;-82
2023/07/15 00:49:21;;;;;;;5.95;2.10;;;28.00;63.10;;;;;;7378809;19;20006;-75
2023/07/15 00:51:58;;;;;;;5.03;1.50;;;28.00;63.30;;;;;;7378601;19;20006;-75
2023/07/15 00:54:31;;;;;;;2.90;1.50;;;28.00;63.30;;;;;;7378531;19;20023;-75
2023/07/15 00:57:01;;;;;;;5.10;1.48;;;28.00;63.80;;;;;;7377726;19;20002;-75
2023/07/15 00:59:31;;;;;;;5.43;1.50;;;27.90;64.30;;;;;;7377766;19;20011;-74
2023/07/15 01:02:00;;;;;;;5.57;1.73;;;27.80;64.80;;;;;;7378224;19;20111;-76
2023/07/15 01:04:35;;;;;;;5.03;1.70;;;27.90;65.00;;;;;;7399321;19;20082;-77
2023/07/15 01:07:05;;;;;;;8.05;1.23;;;27.90;65.20;;;;;;7378472;19;20011;-77
2023/07/15 01:09:34;;;;;;;4.05;1.40;;;27.90;65.50;;;;;;7378531;19;20009;-77
2023/07/15 01:12:04;;;;;;;1.88;1.20;;;27.90;66.10;;;;;;7376868;19;20007;-76
2023/07/15 01:14:34;;;;;;;3.28;1.40;;;27.90;66.20;;;;;;7378054;19;20291;-77
2023/07/15 01:17:06;;;;;;;2.50;1.10;;;27.90;66.20;;;;;;7378441;19;20015;-76
2023/07/15 01:19:38;;;;;;;4.05;1.27;;;27.80;66.80;;;;;;7407436;19;20074;-76
2023/07/15 01:22:08;;;;;;;3.47;1.42;;;27.80;66.90;;;;;;7387569;19;20010;-76
2023/07/15 01:24:42;;;;;;;2.50;1.50;;;27.80;67.30;;;;;;7396086;19;20070;-77
2023/07/15 01:27:26;;;;;;;7.32;1.60;;;27.70;67.70;;;;;;7390621;19;20010;-77
2023/07/15 01:30:04;;;;;;;7.10;1.27;;;27.70;67.70;;;;;;7395740;19;20385;-77
2023/07/15 01:32:34;;;;;;;6.93;1.40;;;27.70;67.70;;;;;;7393896;19;20090;-77
2023/07/15 01:35:11;;;;;;;2.67;1.30;;;27.80;68.10;;;;;;7389490;19;20142;-77
2023/07/15 01:37:41;;;;;;;2.20;1.40;;;27.70;68.30;;;;;;7409752;19;20039;-76
2023/07/15 01:40:15;;;;;;;3.13;1.10;;;27.70;68.30;;;;;;7386527;19;20003;-76
2023/07/15 01:42:43;;;;;;;3.30;1.20;;;27.80;68.60;;;;;;7386500;19;20002;-77
2023/07/15 01:45:21;;;;;;;6.28;1.35;;;27.80;68.70;;;;;;7387953;19;20003;-77
2023/07/15 01:47:52;;;;;;;6.18;1.25;;;27.80;68.70;;;;;;7387730;19;20007;-77
2023/07/15 01:50:24;;;;;;;;;;;27.80;68.80;;;;;;7385479;19;20014;-77
2023/07/15 01:52:55;;;;;;;3.17;1.45;;;27.80;69.10;;;;;;7387248;19;19915;-77
2023/07/15 01:55:27;;;;;;;;;;;27.70;69.40;;;;;;7408891;19;20015;-77
2023/07/15 01:57:57;;;;;;;7.03;1.85;;;27.80;69.40;;;;;;7386377;19;19915;-76
2023/07/15 02:00:27;;;;;;;1.55;1.25;;;27.70;69.40;;;;;;7386379;19;20007;-77
2023/07/15 02:03:01;;;;;;;4.20;1.23;;;27.70;69.70;;;;;;7387180;19;20002;-77
2023/07/15 02:05:34;;;;;;;6.00;1.30;;;27.80;69.80;;;;;;7385814;19;20003;-77
2023/07/15 02:08:03;;;;;;;5.70;1.42;;;27.80;70.00;;;;;;7386828;19;20014;-77
2023/07/15 02:10:35;;;;;;;7.32;1.20;;;27.60;70.40;;;;;;7408582;19;20420;-77
2023/07/15 02:13:03;;;;;;;3.03;1.50;;;27.60;70.50;;;;;;7389511;19;20003;-77
2023/07/15 02:15:32;;;;;;;2.88;1.30;;;27.60;70.60;;;;;;7387214;19;20018;-77
2023/07/15 02:18:01;;;;;;;2.50;1.45;;;27.60;70.80;;;;;;7386185;19;19999;-77
2023/07/15 02:20:30;;;;;;;2.67;1.33;;;27.60;70.90;;;;;;7387934;19;20007;-77
2023/07/15 02:22:58;;;;;;;4.93;1.33;;;27.60;70.90;;;;;;7388427;19;20096;-77
2023/07/15 02:25:27;;;;;;;4.53;1.33;;;27.40;71.40;;;;;;7408248;19;20007;-76
2023/07/15 02:27:58;;;;;;;3.60;1.08;;;27.40;71.40;;;;;;7384724;19;20010;-76
2023/07/15 02:30:28;;;;;;;4.25;1.27;;;27.50;71.60;;;;;;7383019;19;19998;-77
2023/07/15 02:32:58;;;;;;;1.75;1.33;;;27.50;71.50;;;;;;7389436;19;19999;-78
2023/07/15 02:35:27;;;;;;;7.07;1.35;;;27.60;71.40;;;;;;7390297;19;20055;-77
2023/07/15 02:37:57;;;;;;;4.53;1.17;;;27.40;71.70;;;;;;7390473;19;20013;-78
2023/07/15 02:40:29;;;;;;;2.60;1.33;;;27.40;72.00;;;;;;7411512;19;20010;-77
2023/07/15 02:43:00;;;;;;;1.45;1.23;;;27.40;72.40;;;;;;7390075;19;20067;-77
2023/07/15 02:45:29;;;;;;;1.30;1.20;;;27.30;72.50;;;;;;7386561;19;20003;-76
2023/07/15 02:47:58;;;;;;;5.85;1.50;;;27.40;72.60;;;;;;7387009;19;20005;-76
2023/07/15 02:50:27;;;;;;;2.45;1.08;;;27.40;72.70;;;;;;7386019;19;20433;-77
2023/07/15 02:52:55;;;;;;;6.30;1.40;;;27.40;73.60;;;;;;7385202;19;20014;-76
2023/07/15 02:55:27;;;;;;;2.75;1.15;;;27.40;72.70;;;;;;7409149;19;20027;-77
2023/07/15 02:57:56;;;;;;;3.13;1.10;;;27.40;73.00;;;;;;7389989;19;20010;-77
2023/07/15 03:00:27;;;;;;;4.28;1.40;;;27.40;73.50;;;;;;7390839;19;20019;-77
2023/07/15 03:02:56;;;;;;;5.65;1.00;;;27.40;73.80;;;;;;7389502;19;20011;-77
2023/07/15 03:05:25;;;;;;;4.85;1.52;;;27.40;73.80;;;;;;7385551;19;20024;-77
2023/07/15 03:07:56;;;;;;;5.10;1.20;;;27.40;73.90;;;;;;7384378;19;20019;-77
2023/07/15 03:10:25;;;;;;;6.53;1.40;;;27.20;74.60;;;;;;7408643;19;20035;-76
2023/07/15 03:12:54;;;;;;;5.93;1.40;;;27.00;75.20;;;;;;7388597;19;20010;-76
2023/07/15 03:15:23;;;;;;;5.18;1.30;;;27.00;75.40;;;;;;7385276;19;20018;-77
2023/07/15 03:17:55;;;;;;;4.53;1.40;;;26.80;76.10;;;;;;7383572;19;20207;-76
2023/07/15 03:20:23;;;;;;;;;;;26.80;76.40;;;;;;7385059;19;20297;-77
2023/07/15 03:22:54;;;;;;;4.07;1.63;;;26.80;76.60;;;;;;7382685;19;19963;-76
2023/07/15 03:25:24;;;;;;;3.97;1.30;;;26.80;76.50;;;;;;7403551;19;20014;-77
2023/07/15 03:27:53;;;;;;;2.95;1.33;;;26.60;77.30;;;;;;7385710;19;20019;-77
2023/07/15 03:30:22;;;;;;;4.32;1.55;;;26.50;77.60;;;;;;7387934;19;20031;-77
2023/07/15 03:32:53;;;;;;;5.25;1.50;;;26.60;78.50;;;;;;7383505;19;20010;-77
2023/07/15 03:35:24;;;;;;;3.90;1.38;;;26.60;77.70;;;;;;7382860;19;20377;-77
2023/07/15 03:37:53;;;;;;;4.60;1.50;;;26.60;77.70;;;;;;7383253;19;20015;-77
2023/07/15 03:40:22;;;;;;;3.90;1.40;;;26.50;77.80;;;;;;7405377;19;20007;-78
2023/07/15 03:42:51;;;;;;;3.92;1.40;;;26.60;77.80;;;;;;7393860;19;20027;-77
2023/07/15 03:45:20;;;;;;;3.03;1.40;;;26.40;78.20;;;;;;7387130;19;20007;-76
2023/07/15 03:47:48;;;;;;;3.58;1.50;;;26.30;78.30;;;;;;7386194;19;20020;-77
2023/07/15 03:50:19;;;;;;;8.38;1.52;;;26.40;78.30;;;;;;7385860;19;20014;-77
2023/07/15 03:52:50;;;;;;;3.70;1.33;;;26.50;78.20;;;;;;7383534;19;20006;-77
2023/07/15 03:55:19;;;;;;;3.15;1.30;;;26.60;77.80;;;;;;7405799;19;20036;-77
2023/07/15 03:57:47;;;;;;;9.43;1.38;;;26.40;77.70;;;;;;7382229;19;20014;-77
2023/07/15 04:00:17;;;;;;;7.38;1.50;;;26.60;77.70;;;;;;7385457;19;20011;-78
2023/07/15 04:02:49;;;;;;;6.40;1.38;;;26.60;77.70;;;;;;7386743;19;20015;-77
2023/07/15 04:05:18;;;;;;;3.40;1.25;;;26.60;77.50;;;;;;7386555;19;20007;-77
2023/07/15 04:07:47;;;;;;;4.80;1.30;;;26.40;77.90;;;;;;7386125;19;20334;-77
2023/07/15 04:10:19;;;;;;;3.53;1.25;;;26.40;78.00;;;;;;7408347;19;20024;-78
2023/07/15 04:12:48;;;;;;;6.15;1.58;;;26.30;78.00;;;;;;7386392;19;20277;-77
2023/07/15 04:15:16;;;;;;;2.42;1.30;;;26.30;78.30;;;;;;7385099;19;20002;-77
2023/07/15 04:17:45;;;;;;;3.28;1.10;;;26.40;78.20;;;;;;7384236;19;20013;-77
2023/07/15 04:20:14;;;;;;;5.60;1.40;;;26.40;77.90;;;;;;7381858;19;20062;-76
2023/07/15 04:22:43;;;;;;;3.58;1.42;;;26.50;77.90;;;;;;7382164;19;20035;-77
2023/07/15 04:25:14;;;;;;;3.58;1.50;;;26.20;81.10;;;;;;7405764;19;20031;-78
2023/07/15 04:27:45;;;;;;;8.63;1.42;;;26.10;82.00;;;;;;7382327;19;20010;-80
2023/07/15 04:30:14;;;;;;;;;;;25.90;81.90;;;;;;7384264;19;20380;-78
2023/07/15 04:32:44;;;;;;;2.97;1.15;;;25.80;82.50;;;;;;7385313;19;19921;-78
2023/07/15 04:35:13;;;;;;;5.60;1.35;;;25.60;82.50;;;;;;7384222;19;20011;-78
2023/07/15 04:37:44;;;;;;;5.88;1.52;;;25.50;82.70;;;;;;7400180;19;20460;-79
2023/07/15 04:40:13;;;;;;;3.03;1.30;;;25.60;83.30;;;;;;7406844;19;20018;-78
2023/07/15 04:42:45;;;;;;;5.00;1.50;;;25.60;82.90;;;;;;7383777;19;20015;-78
2023/07/15 04:45:13;;;;;;;4.85;1.60;;;25.70;82.80;;;;;;7384415;19;20013;-78
2023/07/15 04:47:42;;;;;;;3.83;1.33;;;25.70;82.30;;;;;;7384736;19;20035;-77
2023/07/15 04:50:13;;;;;;;8.05;1.67;;;25.80;82.30;;;;;;7381908;19;20010;-79
2023/07/15 04:52:41;;;;;;;3.47;1.35;;;25.80;82.00;;;;;;7395128;19;20002;-78
2023/07/15 04:55:11;;;;;;;9.30;1.50;;;25.60;82.80;;;;;;7407224;19;20027;-78
2023/07/15 04:57:40;;;;;;;8.73;1.60;;;25.70;83.10;;;;;;7384635;19;20028;-78
2023/07/15 05:00:13;;;;;;;5.32;1.55;;;25.60;83.40;;;;;;7388084;19;20380;-79
2023/07/15 05:02:42;;;;;;;4.60;1.77;;;25.70;83.50;;;;;;7392032;19;20031;-79
2023/07/15 05:05:11;;;;;;;5.57;1.70;;;25.90;83.40;;;;;;7385683;19;20043;-79
2023/07/15 05:07:40;;;;;;;4.22;1.58;;;26.00;83.80;;;;;;7404454;19;20038;-79
2023/07/15 05:10:10;;;;;;;17.17;2.70;;;26.10;82.90;;;;;;7388461;19;20019;-79
2023/07/15 05:12:39;;;;;;;9.83;1.80;;;26.20;83.30;;;;;;7383465;19;20007;-78
2023/07/15 05:15:14;;;;;;;4.18;1.58;;;26.00;83.90;;;;;;7382499;19;20014;-78
2023/07/15 05:17:44;;;;;;;5.07;1.83;;;25.90;85.70;;;;;;7382643;19;20050;-78
2023/07/15 05:20:14;;;;;;;5.18;1.80;;;25.70;85.80;;;;;;7384474;19;20007;-79
2023/07/15 05:22:44;;;;;;;11.85;1.90;;;25.70;87.20;;;;;;7384885;19;20236;-77
2023/07/15 05:25:13;;;;;;;6.20;1.65;;;25.70;87.70;;;;;;7401723;19;20350;-77
2023/07/15 05:27:41;;;;;;;5.38;1.70;;;25.80;87.60;;;;;;7379694;19;20020;-77
2023/07/15 05:30:13;;;;;;;4.82;1.67;;;25.70;85.60;;;;;;7379586;19;20002;-77
2023/07/15 05:32:42;;;;;;;5.30;1.88;;;25.80;86.00;;;;;;7383292;19;20007;-78
2023/07/15 05:35:12;;;;;;;5.75;2.17;;;25.80;85.40;;;;;;7384425;19;20003;-78
2023/07/15 05:37:41;;;;;;;5.50;1.90;;;25.80;85.10;;;;;;7405492;19;20022;-77
2023/07/15 05:40:12;;;;;;;8.52;1.90;;;25.90;85.30;;;;;;7380828;19;20074;-78
2023/07/15 05:42:41;;;;;;;4.40;1.80;;;25.90;85.20;;;;;;7379701;19;20011;-77
2023/07/15 05:45:14;;;;;;;6.43;2.13;;;26.00;84.00;;;;;;7381490;19;20299;-77
2023/07/15 05:47:43;;;;;;;12.52;1.70;;;26.00;82.60;;;;;;7380546;19;20007;-77
2023/07/15 05:50:12;;;;;;;8.23;1.90;;;25.90;81.90;;;;;;7379345;19;20448;-77
2023/07/15 05:52:41;;;;;;;8.10;2.17;;;25.90;82.70;;;;;;7406360;19;20106;-77
2023/07/15 05:55:11;;;;;;;10.20;2.05;;;25.90;81.60;;;;;;7404697;19;20385;-77
2023/07/15 05:57:40;;;;;;;9.77;2.45;;;25.70;80.30;;;;;;7383472;19;20006;-78
2023/07/15 06:00:12;;;;;;;6.53;2.17;;;25.70;80.20;;;;;;7381311;19;20031;-78
2023/07/15 06:02:41;;;;;;;4.70;1.80;;;25.70;80.20;;;;;;7380002;19;20003;-77
2023/07/15 06:05:12;;;;;;;5.38;1.95;;;25.70;80.20;;;;;;7385629;19;20003;-78
2023/07/15 06:07:41;;;;;;;12.80;2.22;;;25.80;80.20;;;;;;7408054;19;20357;-76
2023/07/15 06:10:10;;;;;;;7.65;2.20;;;25.90;79.80;;;;;;7405554;19;20230;-77
2023/07/15 06:12:39;;;;;;;11.70;2.20;;;26.00;80.00;;;;;;7389607;19;20016;-77
2023/07/15 06:15:09;;;;;;;5.25;2.17;;;26.00;78.80;;;;;;7388879;19;20006;-77
2023/07/15 06:17:40;;;;;;;11.00;2.45;;;26.00;79.00;;;;;;7387965;19;20007;-78
2023/07/15 06:20:12;;;;;;;7.88;2.15;;;26.00;78.90;;;;;;7387361;19;20393;-77
2023/07/15 06:22:40;;;;;;;4.03;2.05;;;26.00;78.00;;;;;;7412134;19;20020;-77
2023/07/15 06:25:11;;;;;;;6.32;2.10;;;26.00;77.80;;;;;;7386987;19;20016;-77
2023/07/15 06:27:40;;;;;;;4.43;1.90;;;26.10;77.30;;;;;;7387592;19;20046;-77
2023/07/15 06:30:10;;;;;;;5.78;2.05;;;26.10;77.70;;;;;;7385956;19;20389;-76
2023/07/15 06:32:42;;;;;;;8.75;2.58;;;26.10;76.70;;;;;;7387952;19;20006;-77
2023/07/15 06:35:11;;;;;;;4.80;1.88;;;26.10;77.00;;;;;;7389333;19;20005;-77
2023/07/15 06:37:40;;;;;;;5.90;2.20;;;26.20;76.60;;;;;;7408882;19;20032;-77
2023/07/15 06:40:10;;;;;;;3.40;1.60;;;26.20;76.80;;;;;;7388750;19;20028;-77
2023/07/15 06:42:39;;;;;;;9.95;2.30;;;26.20;76.30;;;;;;7386805;19;20265;-77
2023/07/15 06:45:08;;;;;;;5.30;2.08;;;26.10;77.60;;;;;;7388226;19;20014;-77
2023/07/15 06:47:37;;;;;;;8.65;2.22;;;25.80;79.40;;;;;;7389071;19;20007;-77
2023/07/15 06:50:10;;;;;;;9.13;2.55;;;25.80;80.10;;;;;;7386831;19;20047;-77
2023/07/15 06:52:39;;;;;;;5.88;2.00;;;25.80;81.30;;;;;;7408668;19;20002;-77
2023/07/15 06:55:08;;;;;;;5.47;2.10;;;25.90;81.60;;;;;;7389034;19;20010;-77
2023/07/15 06:57:37;;;;;;;9.63;3.08;;;25.90;80.70;;;;;;7385895;19;20007;-77
2023/07/15 07:00:07;;;;;;;11.20;2.40;;;26.00;80.20;;;;;;7387270;19;20007;-77
2023/07/15 07:02:36;;;;;;;14.43;2.43;;;25.90;79.10;;;;;;7389599;19;20220;-77
2023/07/15 07:05:07;;;;;;;8.00;2.83;;;25.80;79.20;;;;;;7384451;19;20224;-76
2023/07/15 07:07:38;;;;;;;5.10;2.15;;;25.70;79.80;;;;;;7406193;19;20027;-77
2023/07/15 07:10:08;;;;;;;8.27;2.72;;;25.70;79.70;;;;;;7385957;19;20006;-76
2023/07/15 07:12:37;;;;;;;6.68;2.20;;;25.80;80.00;;;;;;7388688;19;20002;-76
2023/07/15 07:15:06;;;;;;;5.85;2.70;;;25.90;79.80;;;;;;7387741;19;20003;-76
2023/07/15 07:17:35;;;;;;;9.13;2.13;;;25.90;79.40;;;;;;7394359;19;19998;-77
2023/07/15 07:20:05;;;;;;;9.75;2.45;;;25.90;78.10;;;;;;7400147;19;20018;-76
2023/07/15 07:22:37;;;;;;;3.08;1.75;;;25.90;77.90;;;;;;7420019;19;20003;-77
2023/07/15 07:25:06;;;;;;;5.97;2.03;;;25.90;76.30;;;;;;7384565;19;20347;-77
2023/07/15 07:27:34;;;;;;;7.03;2.35;;;25.90;77.30;;;;;;7385952;19;20010;-75
2023/07/15 07:30:03;;;;;;;9.90;1.77;;;25.90;77.10;;;;;;7383335;19;20006;-77
2023/07/15 07:32:35;;;;;;;4.00;1.83;;;25.90;76.80;;;;;;7385025;19;20003;-77
2023/07/15 07:35:04;;;;;;;4.38;1.63;;;26.00;76.30;;;;;;7386048;19;20010;-77
2023/07/15 07:37:32;;;;;;;6.18;1.90;;;26.00;75.90;;;;;;7405816;19;20003;-77
2023/07/15 07:40:04;;;;;;;6.15;2.05;;;25.80;75.60;;;;;;7384473;19;20016;-77
2023/07/15 07:42:32;;;;;;;3.97;1.73;;;25.70;75.80;;;;;;7384574;19;20404;-77
2023/07/15 07:45:13;;;;;;;6.10;1.83;;;25.60;75.80;;;;;;7385192;19;20027;-77
2023/07/15 07:47:44;;;;;;;10.77;2.20;;;25.60;76.00;;;;;;7386495;19;20011;-78
2023/07/15 07:50:13;;;;;;;7.07;1.45;;;25.60;76.30;;;;;;7388004;19;20035;-77
2023/07/15 07:52:42;;;;;;;6.35;1.92;;;25.60;75.00;;;;;;7393199;19;20259;-77
2023/07/15 07:55:13;;;;;;;4.43;1.80;;;25.80;75.50;;;;;;7402710;19;20029;-77
2023/07/15 07:57:43;;;;;;;6.40;2.10;;;25.90;75.20;;;;;;7384361;19;20019;-77
2023/07/15 08:00:15;;;;;;;8.82;1.60;;;25.90;75.00;;;;;;7391351;19;20003;-80
2023/07/15 08:02:44;;;;;;;5.72;1.75;;;26.10;75.10;;;;;;7390762;19;20021;-78
2023/07/15 08:08:21;;;;;;;4.10;1.83;;;26.30;74.00;;;;;;7391062;19;20223;-79
2023/07/15 08:10:54;;;;;;;5.10;1.63;;;26.30;72.40;;;;;;7386703;19;20009;-79
2023/07/15 08:13:23;;;;;;;5.65;1.67;;;26.30;73.30;;;;;;7407139;19;20030;-79
2023/07/15 08:15:59;;;;;;;5.28;1.63;;;26.20;73.30;;;;;;7384974;19;20068;-79
2023/07/15 08:18:28;;;;;;;4.38;1.80;;;26.40;73.50;;;;;;7385886;19;20016;-79
2023/07/15 08:20:57;;;;;;;5.82;2.00;;;26.40;72.60;;;;;;7386078;19;20052;-80
2023/07/15 08:23:28;;;;;;;3.35;1.30;;;26.30;72.60;;;;;;7388197;19;20006;-79
2023/07/15 08:26:01;;;;;;;11.52;2.05;;;26.20;72.70;;;;;;7386469;19;20006;-78
2023/07/15 08:31:41;;;;;;;6.72;1.88;;;26.20;73.60;;;;;;7418119;19;20001;-81
2023/07/15 08:37:49;;;;;;;9.75;1.88;;;26.40;73.70;;;;;;7415620;19;20027;-85
2023/07/15 08:40:39;;;;;;;10.15;2.17;;;26.20;74.00;;;;;;7390432;19;20035;-83
2023/07/15 08:43:52;;;;;;;5.32;2.00;;;26.40;74.20;;;;;;7389840;19;20024;-87
2023/07/15 08:46:29;;;;;;;5.68;1.83;;;26.70;74.70;;;;;;7384278;19;20022;-78
2023/07/15 08:48:58;;;;;;;5.50;1.92;;;26.70;72.90;;;;;;7385458;19;20325;-77
2023/07/15 08:51:32;;;;;;;7.32;2.25;;;26.80;72.20;;;;;;7382897;19;20003;-78
2023/07/15 08:54:05;;;;;;;6.05;1.58;;;26.80;71.70;;;;;;7384894;19;20014;-79
2023/07/15 08:56:35;;;;;;;7.63;1.90;;;26.80;70.00;;;;;;7386044;19;20014;-78
2023/07/15 08:59:06;;;;;;;9.90;3.15;;;26.70;70.10;;;;;;7384408;19;20007;-76
2023/07/15 09:01:38;;;;;;;7.45;1.77;;;26.70;70.50;;;;;;7409101;19;20009;-78
2023/07/15 09:04:07;;;;;;;6.60;2.10;;;26.50;69.80;;;;;;7385862;19;20338;-77
2023/07/15 09:06:36;;;;;;;12.95;1.92;;;26.40;70.40;;;;;;7381409;19;20007;-77
2023/07/15 09:09:05;;;;;;;8.27;1.85;;;26.30;71.10;;;;;;7381968;19;20007;-80
2023/07/15 09:11:50;;;;;;;7.75;2.42;;;26.10;71.60;;;;;;7381917;19;20063;-77
2023/07/15 09:14:36;;;;;;;8.75;2.05;;;26.10;71.80;;;;;;7382224;19;20305;-81
2023/07/15 09:17:08;;;;;;;10.15;2.05;;;26.00;72.60;;;;;;7384976;19;20029;-79
2023/07/15 09:19:38;;;;;;;8.85;2.72;;;26.00;72.70;;;;;;7404925;19;20020;-78
2023/07/15 09:22:08;;;;;;;4.18;1.80;;;25.90;73.00;;;;;;7380665;19;20003;-78
2023/07/15 09:24:40;;;;;;;3.40;1.77;;;25.90;73.20;;;;;;7410716;19;20025;-78
2023/07/15 09:27:09;;;;;;;6.93;2.10;;;25.90;73.00;;;;;;7412369;19;20010;-78
2023/07/15 09:29:41;;;;;;;6.75;2.58;;;25.90;73.00;;;;;;7411128;19;20015;-80
2023/07/15 09:32:24;;;;;;;6.88;2.28;;;26.10;73.00;;;;;;7401636;19;20106;-80
2023/07/15 09:34:56;;;;;;;5.85;2.22;;;26.40;73.20;;;;;;7385312;19;20023;-78
2023/07/15 09:37:33;;;;;;;;;;;26.50;72.80;;;;;;7407482;19;20342;-76
2023/07/15 09:40:04;;;;;;;10.60;2.67;;;26.60;72.90;;;;;;7381748;19;19907;-75
2023/07/15 09:42:33;;;;;;;7.32;2.42;;;26.50;73.00;;;;;;7387977;19;20269;-76
2023/07/15 09:45:01;;;;;;;10.38;2.60;;;26.30;73.30;;;;;;7388129;19;20099;-76
2023/07/15 09:47:33;;;;;;;10.52;2.38;;;26.40;73.60;;;;;;7406929;19;20015;-75
2023/07/15 09:50:01;;;;;;;10.48;2.42;;;26.40;73.30;;;;;;7389824;19;20003;-76
2023/07/15 09:52:31;;;;;;;7.10;2.70;;;26.10;74.50;;;;;;7411590;19;20023;-76
2023/07/15 09:55:00;;;;;;;9.18;2.55;;;26.30;75.10;;;;;;7392702;19;20010;-76
2023/07/15 09:57:29;;;;;;;7.05;2.55;;;26.60;75.00;;;;;;7401390;19;20018;-76
2023/07/15 09:59:58;;;;;;;8.38;2.40;;;26.80;73.80;;;;;;7398666;19;20017;-76
2023/07/15 10:02:37;;;;;;;8.43;2.47;;;26.90;73.50;;;;;;7398409;19;20017;-75
2023/07/15 10:05:12;;;;;;;6.88;2.35;;;26.90;70.70;;;;;;7399839;19;20414;-75
2023/07/15 10:07:42;;;;;;;6.53;2.35;;;27.10;70.80;;;;;;7417333;19;20006;-76
2023/07/15 10:10:11;;;;;;;4.18;1.70;;;27.30;70.80;;;;;;7421648;19;20079;-75
2023/07/15 10:12:40;;;;;;;5.72;2.08;;;27.30;69.60;;;;;;7403654;19;20011;-75
2023/07/15 10:15:10;;;;;;;7.68;1.98;;;27.10;69.70;;;;;;7405328;19;19998;-76
2023/07/15 10:17:42;;;;;;;7.28;2.15;;;27.10;70.30;;;;;;7393325;19;20105;-77
2023/07/15 10:20:12;;;;;;;5.78;2.20;;;27.30;69.70;;;;;;7391472;19;20361;-76
2023/07/15 10:22:42;;;;;;;6.80;2.55;;;27.50;69.90;;;;;;7407840;19;20006;-76
2023/07/15 10:25:12;;;;;;;5.88;2.28;;;27.60;69.70;;;;;;7411205;19;20002;-76
2023/07/15 10:27:41;;;;;;;10.45;2.35;;;27.70;68.20;;;;;;7389044;19;20003;-76
2023/07/15 10:30:29;;;;;;;6.20;2.33;;;27.40;68.40;;;;;;7386968;19;20002;-78
2023/07/15 10:33:25;;;;;;;8.70;2.55;;;27.50;68.30;;;;;;7387483;19;20010;-78
2023/07/15 10:35:55;;;;;;;7.22;2.60;;;27.30;67.60;;;;;;7383251;19;20028;-78
2023/07/15 10:38:29;;;;;;;9.45;2.50;;;27.20;68.30;;;;;;7387017;19;20018;-76
2023/07/15 10:41:03;;;;;;;7.47;2.25;;;27.20;68.70;;;;;;7386621;19;20024;-77
2023/07/15 10:43:40;;;;;;;7.03;2.17;;;27.50;68.80;;;;;;7412570;19;20021;-75
2023/07/15 10:46:19;;;;;;;10.27;2.40;;;27.60;68.30;;;;;;7390447;19;19998;-77
2023/07/15 10:48:50;;;;;;;8.55;2.70;;;27.70;67.80;;;;;;7393257;19;20026;-77
2023/07/15 10:51:19;;;;;;;8.48;2.50;;;27.50;68.00;;;;;;7388773;19;20034;-74
2023/07/15 10:53:48;;;;;;;8.45;2.10;;;27.50;68.70;;;;;;7387781;19;20374;-74
2023/07/15 10:56:16;;;;;;;9.30;2.05;;;27.40;68.00;;;;;;7386669;19;20010;-74
2023/07/15 10:58:47;;;;;;;7.28;2.42;;;27.50;68.20;;;;;;7382246;19;20028;-74
2023/07/15 11:01:16;;;;;;;11.73;2.88;;;27.40;68.20;;;;;;7406843;19;20011;-74
2023/07/15 11:03:45;;;;;;;8.43;2.92;;;27.50;67.70;;;;;;7386874;19;20062;-73
2023/07/15 11:06:22;;;;;;;11.38;2.80;;;27.30;68.10;;;;;;7393081;19;20023;-75
2023/07/15 11:08:51;;;;;;;12.15;2.80;;;27.00;69.40;;;;;;7395776;19;20020;-75
2023/07/15 11:11:19;;;;;;;9.40;2.50;;;27.20;70.00;;;;;;7388626;19;20357;-74
2023/07/15 11:13:50;;;;;;;7.32;2.70;;;27.40;69.40;;;;;;7384814;19;20010;-75
2023/07/15 11:16:20;;;;;;;5.93;2.53;;;27.50;68.80;;;;;;7407986;19;20022;-76
2023/07/15 11:19:18;;;;;;;9.23;2.65;;;27.30;68.70;;;;;;7385703;19;19999;-84
2023/07/15 11:22:02;;;;;;;8.05;2.30;;;27.50;68.90;;;;;;7387937;19;20035;-80
2023/07/15 11:24:40;;;;;;;6.90;2.50;;;27.60;68.60;;;;;;7386557;19;20011;-82
2023/07/15 11:27:09;;;;;;;9.75;2.55;;;27.40;69.20;;;;;;7386523;19;20009;-80
2023/07/15 11:29:37;;;;;;;12.82;2.60;;;27.40;69.00;;;;;;7384886;19;20024;-74
2023/07/15 11:32:07;;;;;;;6.97;2.08;;;27.50;68.80;;;;;;7383382;19;20023;-74
2023/07/15 11:34:36;;;;;;;6.03;2.55;;;27.50;68.40;;;;;;7404934;19;20021;-77
2023/07/15 11:37:08;;;;;;;6.00;2.45;;;27.70;67.40;;;;;;7382870;19;20241;-73
2023/07/15 11:39:42;;;;;;;8.18;3.10;;;27.60;67.70;;;;;;7381465;19;20015;-72
2023/07/15 11:42:12;;;;;;;7.22;2.97;;;27.70;67.60;;;;;;7383247;19;20238;-74
2023/07/15 11:44:42;;;;;;;9.40;2.58;;;27.70;67.40;;;;;;7382955;19;20238;-75
2023/07/15 11:47:13;;;;;;;9.50;2.38;;;27.80;67.10;;;;;;7382575;19;20007;-76
2023/07/15 11:49:46;;;;;;;;;;;27.80;67.10;;;;;;7396347;19;20007;-72
2023/07/15 11:52:44;;;;;;;4.90;2.20;;;27.80;66.90;;;;;;7405748;19;19926;-75
2023/07/15 11:55:15;;;;;;;9.18;2.50;;;27.90;66.70;;;;;;7393167;19;20013;-80
2023/07/15 11:57:56;;;;;;;5.25;1.85;;;27.90;67.20;;;;;;7392966;19;20006;-81
2023/07/15 12:00:54;;;;;;;7.68;2.38;;;27.60;67.10;;;;;;7394753;19;20301;-81
2023/07/15 12:03:39;;;;;;;5.45;2.03;;;27.80;67.50;;;;;;7392469;19;20035;-81
2023/07/15 12:06:24;;;;;;;7.47;2.33;;;27.80;67.80;;;;;;7393613;19;20042;-82
2023/07/15 12:09:14;;;;;;;9.57;2.15;;;27.60;67.40;;;;;;7388639;19;20011;-78
2023/07/15 12:11:43;;;;;;;4.95;1.95;;;27.50;68.10;;;;;;7390226;19;20027;-78
2023/07/15 12:14:13;;;;;;;18.05;2.47;;;27.60;67.80;;;;;;7399002;19;20042;-77
2023/07/15 12:16:43;;;;;;;9.63;2.25;;;27.70;68.00;;;;;;7403814;19;20016;-75
2023/07/15 12:19:13;;;;;;;7.95;2.08;;;27.50;68.30;;;;;;7404628;19;20378;-75
2023/07/15 12:21:43;;;;;;;10.50;2.70;;;27.50;68.00;;;;;;7381293;19;20257;-75
2023/07/15 12:24:14;;;;;;;9.27;2.33;;;27.80;68.10;;;;;;7381443;19;20326;-76
2023/07/15 12:26:42;;;;;;;8.48;3.58;;;28.00;67.40;;;;;;7383998;19;20072;-76
2023/07/15 12:29:11;;;;;;;5.18;2.58;;;28.20;66.80;;;;;;7380447;19;20241;-76
2023/07/15 12:31:40;;;;;;;8.23;1.90;;;28.40;66.40;;;;;;7401492;19;20493;-76
2023/07/15 12:34:10;;;;;;;4.22;1.73;;;28.50;65.20;;;;;;7380230;19;20122;-77
2023/07/15 12:36:40;;;;;;;3.47;1.83;;;28.40;65.10;;;;;;7383345;19;20044;-78
2023/07/15 12:39:13;;;;;;;6.60;2.17;;;28.30;65.30;;;;;;7384662;19;20657;-77
2023/07/15 12:41:45;;;;;;;6.80;1.90;;;28.30;65.20;;;;;;7386550;19;20002;-78
2023/07/15 12:44:15;;;;;;;7.10;1.95;;;28.40;65.30;;;;;;7387132;19;20007;-78
2023/07/15 12:46:44;;;;;;;8.02;2.00;;;28.30;65.20;;;;;;7389994;19;20359;-78
2023/07/15 12:49:12;;;;;;;6.13;1.80;;;27.90;65.70;;;;;;7403949;19;20357;-77
2023/07/15 12:51:45;;;;;;;10.50;1.83;;;27.80;66.30;;;;;;7384313;19;20014;-77
2023/07/15 12:54:14;;;;;;;4.03;1.75;;;27.50;67.20;;;;;;7386286;19;20029;-78
2023/07/15 12:56:45;;;;;;;5.82;1.85;;;27.40;67.60;;;;;;7384058;19;20007;-78
2023/07/15 12:59:14;;;;;;;8.60;1.67;;;27.50;67.70;;;;;;7381010;19;20003;-77
2023/07/15 13:01:42;;;;;;;5.18;2.20;;;27.40;68.00;;;;;;7386987;19;20066;-77
2023/07/15 13:04:11;;;;;;;8.40;2.17;;;27.30;67.80;;;;;;7407833;19;20014;-78
2023/07/15 13:06:40;;;;;;;10.52;2.30;;;27.20;70.90;;;;;;7384725;19;20238;-77
2023/07/15 13:09:11;;;;;;;11.50;3.08;;;26.70;76.30;;;;;;7383855;19;20003;-76
2023/07/15 13:11:40;;;;;;;8.95;2.70;;;25.90;84.20;;;;;;7381053;19;19998;-76
2023/07/15 13:14:11;;;;;;;10.18;2.72;;;25.40;88.30;;;;;;7386625;19;20031;-76
2023/07/15 13:16:40;;;;;;;9.80;2.70;;;25.00;89.70;;;;;;7412548;19;20024;-76
2023/07/15 13:19:11;;;;;;;6.43;2.50;;;24.80;90.70;;;;;;7389925;19;20380;-76
2023/07/15 13:21:40;;;;;;;5.22;2.38;;;24.70;90.90;;;;;;7389997;19;20009;-76
2023/07/15 13:24:08;;;;;;;7.30;2.50;;;24.80;92.00;;;;;;7389828;19;20027;-76
2023/07/15 13:26:37;;;;;;;13.15;3.10;;;25.30;93.60;;;;;;7389510;19;20011;-76
2023/07/15 13:29:06;;;;;;;7.15;2.30;;;25.60;92.40;;;;;;7390924;19;20878;-74
2023/07/15 13:31:43;;;;;;;6.78;2.30;;;25.80;92.70;;;;;;7411064;19;20011;-82
2023/07/15 13:34:26;;;;;;;5.13;2.20;;;25.90;90.40;;;;;;7386991;19;20238;-80
2023/07/15 13:36:55;;;;;;;6.90;2.13;;;26.20;90.90;;;;;;7389442;19;20241;-79